createdAt,value
2023-01-07T00:02:55.615Z,6.28
2023-01-07T00:04:57.276Z,6.25
2023-01-07T00:06:59.144Z,6.25
2023-01-07T00:09:04.759Z,6.23
2023-01-07T00:11:08.936Z,6.24
2023-01-07T00:13:10.544Z,6.22
2023-01-07T00:15:12.099Z,6.22
2023-01-07T00:17:15.814Z,6.19
2023-01-07T00:19:19.101Z,6.17
2023-01-07T00:21:24.390Z,6.17
2023-01-07T00:23:26.515Z,6.15
2023-01-07T00:25:28.932Z,6.15
2023-01-07T00:27:30.605Z,6.14
2023-01-07T00:29:33.985Z,6.11
2023-01-07T00:31:38.090Z,6.12
2023-01-07T00:33:40.962Z,6.10
2023-01-07T00:35:43.914Z,6.10
2023-01-07T00:37:45.475Z,6.09
2023-01-07T00:39:47.054Z,6.06
2023-01-07T00:41:50.443Z,6.05
2023-01-07T00:43:52.122Z,6.05
2023-01-07T00:45:53.810Z,6.04
2023-01-07T00:47:55.720Z,6.02
2023-01-07T00:49:57.208Z,6.02
2023-01-07T00:52:00.156Z,6.01
2023-01-07T00:54:01.633Z,5.99
2023-01-07T00:56:03.325Z,5.98
2023-01-07T00:58:05.877Z,5.96
2023-01-07T01:00:08.284Z,5.98
2023-01-07T01:02:10.068Z,5.96
2023-01-07T01:04:11.808Z,5.96
2023-01-07T01:06:15.652Z,5.95
2023-01-07T01:08:19.144Z,5.95
2023-01-07T01:10:21.021Z,5.94
2023-01-07T01:12:22.912Z,5.91
2023-01-07T01:14:24.608Z,5.89
2023-01-07T01:16:26.275Z,5.88
2023-01-07T01:18:27.913Z,5.88
2023-01-07T01:20:29.438Z,5.87
2023-01-07T01:22:30.963Z,5.86
2023-01-07T01:24:33.882Z,5.86
2023-01-07T01:26:35.653Z,5.86
2023-01-07T01:28:37.904Z,5.86
2023-01-07T01:30:39.494Z,5.85
2023-01-07T01:32:41.004Z,5.85
2023-01-07T01:34:42.596Z,5.84
2023-01-07T01:36:44.199Z,5.83
2023-01-07T01:38:45.681Z,5.84
2023-01-07T01:40:48.885Z,5.85
2023-01-07T01:42:50.517Z,5.85
2023-01-07T01:44:53.723Z,5.85
2023-01-07T01:46:55.660Z,5.84
2023-01-07T01:49:02.544Z,5.85
2023-01-07T01:51:04.458Z,5.85
2023-01-07T01:53:12.097Z,5.86
2023-01-07T01:55:18.960Z,5.87
2023-01-07T01:57:25.188Z,5.87
2023-01-07T01:59:32.920Z,5.87
2023-01-07T02:01:35.822Z,5.87
2023-01-07T02:06:37.443Z,5.88
2023-01-07T02:08:39.129Z,5.88
2023-01-07T02:10:40.886Z,5.88
2023-01-07T02:12:57.070Z,5.88
2023-01-07T02:15:11.113Z,5.91
2023-01-07T02:17:19.480Z,5.89
2023-01-07T02:19:55.096Z,5.92
2023-01-07T02:22:04.602Z,5.91
2023-01-07T02:24:47.843Z,5.92
2023-01-07T02:27:09.015Z,5.91
2023-01-07T02:29:48.843Z,5.91
2023-01-07T02:32:09.667Z,5.90
2023-01-07T02:34:18.815Z,5.88
2023-01-07T02:36:35.337Z,5.87
2023-01-07T02:38:49.301Z,5.88
2023-01-07T02:41:00.631Z,5.87
2023-01-07T02:43:13.881Z,5.86
2023-01-07T02:45:24.077Z,5.86
2023-01-07T02:47:32.230Z,5.86
2023-01-07T02:49:36.591Z,5.86
2023-01-07T02:51:40.960Z,5.86
2023-01-07T02:53:46.788Z,5.85
2023-01-07T02:56:00.408Z,5.85
2023-01-07T02:58:34.977Z,5.86
2023-01-07T03:01:06.625Z,5.86
2023-01-07T03:03:20.707Z,5.84
2023-01-07T03:05:45.082Z,5.83
2023-01-07T03:08:00.606Z,5.82
2023-01-07T03:10:09.925Z,5.80
2023-01-07T03:12:19.461Z,5.79
2023-01-07T03:14:26.410Z,5.78
2023-01-07T03:16:34.900Z,5.78
2023-01-07T03:18:43.160Z,5.77
2023-01-07T03:20:57.215Z,5.76
2023-01-07T03:22:59.104Z,5.76
2023-01-07T03:25:10.795Z,5.74
2023-01-07T03:27:14.744Z,5.75
2023-01-07T03:29:18.773Z,5.75
2023-01-07T03:31:22.313Z,5.74
2023-01-07T03:33:30.461Z,5.73
2023-01-07T03:35:34.764Z,5.75
2023-01-07T03:37:37.174Z,5.74
2023-01-07T03:39:40.846Z,5.73
2023-01-07T03:41:42.381Z,5.73
2023-01-07T03:43:43.982Z,5.73
2023-01-07T03:45:46.673Z,5.71
2023-01-07T03:47:50.818Z,5.72
2023-01-07T03:49:52.388Z,5.71
2023-01-07T03:51:55.525Z,5.69
2023-01-07T03:53:59.189Z,5.69
2023-01-07T03:56:00.960Z,5.69
2023-01-07T03:58:02.740Z,5.68
2023-01-07T04:00:09.713Z,5.65
2023-01-07T04:02:11.448Z,5.65
2023-01-07T04:04:13.317Z,5.65
2023-01-07T04:06:14.815Z,5.64
2023-01-07T04:08:17.872Z,5.62
2023-01-07T04:10:19.638Z,5.61
2023-01-07T04:12:21.157Z,5.60
2023-01-07T04:14:22.727Z,5.57
2023-01-07T04:16:24.365Z,5.56
2023-01-07T04:18:26.159Z,5.55
2023-01-07T04:20:27.746Z,5.52
2023-01-07T04:22:29.340Z,5.52
2023-01-07T04:24:34.537Z,5.50
2023-01-07T04:26:36.435Z,5.49
2023-01-07T04:28:38.295Z,5.45
2023-01-07T04:30:40.542Z,5.41
2023-01-07T04:32:46.524Z,5.38
2023-01-07T04:34:48.314Z,5.35
2023-01-07T04:36:52.515Z,5.33
2023-01-07T04:38:54.129Z,5.32
2023-01-07T04:40:57.035Z,5.31
2023-01-07T04:42:59.852Z,5.30
2023-01-07T04:45:01.407Z,5.28
2023-01-07T04:47:03.077Z,5.27
2023-01-07T04:49:04.618Z,5.25
2023-01-07T04:51:06.504Z,5.24
2023-01-07T04:53:08.180Z,5.22
2023-01-07T04:55:10.213Z,5.19
2023-01-07T04:57:13.088Z,5.20
2023-01-07T04:59:14.563Z,5.17
2023-01-07T05:01:16.279Z,5.16
2023-01-07T05:03:18.086Z,5.14
2023-01-07T05:05:19.688Z,5.15
2023-01-07T05:07:21.406Z,5.14
2023-01-07T05:09:22.894Z,5.10
2023-01-07T05:11:24.709Z,5.11
2023-01-07T05:13:27.575Z,5.10
2023-01-07T05:15:29.258Z,5.09
2023-01-07T05:17:30.811Z,5.07
2023-01-07T05:19:32.425Z,5.05
2023-01-07T05:21:34.067Z,5.05
2023-01-07T05:23:35.589Z,5.04
2023-01-07T05:25:39.176Z,5.02
2023-01-07T05:27:42.567Z,5.01
2023-01-07T05:29:45.536Z,5.01
2023-01-07T05:31:47.313Z,5.00
2023-01-07T05:33:51.328Z,4.99
2023-01-07T05:35:54.418Z,4.99
2023-01-07T05:38:01.833Z,5.00
2023-01-07T05:40:03.827Z,4.97
2023-01-07T05:42:05.684Z,4.98
2023-01-07T05:44:07.489Z,4.95
2023-01-07T05:46:10.575Z,4.94
2023-01-07T05:48:13.051Z,4.94
2023-01-07T05:50:15.019Z,4.90
2023-01-07T05:52:18.553Z,4.90
2023-01-07T05:54:21.832Z,4.89
2023-01-07T05:56:23.497Z,4.89
2023-01-07T05:58:31.372Z,4.87
2023-01-07T06:00:33.093Z,4.87
2023-01-07T06:02:36.095Z,4.86
2023-01-07T06:04:37.719Z,4.86
2023-01-07T06:06:41.329Z,4.84
2023-01-07T06:08:43.124Z,4.84
2023-01-07T06:10:46.827Z,4.85
2023-01-07T06:12:48.497Z,4.83
2023-01-07T06:14:52.133Z,4.83
2023-01-07T06:16:56.144Z,4.82
2023-01-07T06:18:59.164Z,4.80
2023-01-07T06:21:01.130Z,4.80
2023-01-07T06:23:03.811Z,4.78
2023-01-07T06:25:06.039Z,4.76
2023-01-07T06:27:09.735Z,4.75
2023-01-07T06:29:12.825Z,4.73
2023-01-07T06:31:16.705Z,4.74
2023-01-07T06:33:20.205Z,4.72
2023-01-07T06:35:23.287Z,4.71
2023-01-07T06:37:24.807Z,4.71
2023-01-07T06:39:26.334Z,4.72
2023-01-07T06:41:27.830Z,4.70
2023-01-07T06:43:35.410Z,4.70
2023-01-07T06:45:41.374Z,4.67
2023-01-07T06:47:43.175Z,4.68
2023-01-07T06:49:44.804Z,4.67
2023-01-07T06:51:48.123Z,4.66
2023-01-07T06:53:49.820Z,4.65
2023-01-07T06:55:51.958Z,4.63
2023-01-07T06:57:53.637Z,4.60
2023-01-07T06:59:55.245Z,4.60
2023-01-07T07:01:56.960Z,4.59
2023-01-07T07:03:58.672Z,4.59
2023-01-07T07:06:00.763Z,4.58
2023-01-07T07:08:04.027Z,4.60
2023-01-07T07:10:06.842Z,4.59
2023-01-07T07:12:09.255Z,4.59
2023-01-07T07:14:10.859Z,4.60
2023-01-07T07:16:12.703Z,4.60
2023-01-07T07:18:14.313Z,4.62
2023-01-07T07:20:16.155Z,4.61
2023-01-07T07:22:17.750Z,4.61
2023-01-07T07:24:23.273Z,4.61
2023-01-07T07:26:26.739Z,4.62
2023-01-07T07:28:28.513Z,4.63
2023-01-07T07:30:45.483Z,4.63
2023-01-07T07:32:49.165Z,4.63
2023-01-07T07:34:50.731Z,4.64
2023-01-07T07:36:52.228Z,4.62
2023-01-07T07:38:53.994Z,4.63
2023-01-07T07:40:57.122Z,4.66
2023-01-07T07:43:10.356Z,4.66
2023-01-07T07:45:15.489Z,4.68
2023-01-07T07:47:18.864Z,4.68
2023-01-07T07:49:20.655Z,4.69
2023-01-07T07:51:24.319Z,4.72
2023-01-07T07:53:26.248Z,4.74
2023-01-07T07:55:29.624Z,4.75
2023-01-07T07:57:32.594Z,4.77
2023-01-07T07:59:35.950Z,4.80
2023-01-07T08:01:37.867Z,4.83
2023-01-07T08:03:39.615Z,4.86
2023-01-07T08:05:42.515Z,4.89
2023-01-07T08:07:44.146Z,4.91
2023-01-07T08:09:45.661Z,4.95
2023-01-07T08:11:47.230Z,4.98
2023-01-07T08:13:50.174Z,4.99
2023-01-07T08:15:51.970Z,5.03
2023-01-07T08:17:58.070Z,5.06
2023-01-07T08:19:59.591Z,5.07
2023-01-07T08:22:01.129Z,5.10
2023-01-07T08:24:02.890Z,5.13
2023-01-07T08:26:04.593Z,5.17
2023-01-07T08:28:06.523Z,5.20
2023-01-07T08:30:11.067Z,5.24
2023-01-07T08:32:12.644Z,5.28
2023-01-07T08:34:14.262Z,5.31
2023-01-07T08:36:22.727Z,5.34
2023-01-07T08:38:24.949Z,5.40
2023-01-07T08:40:26.584Z,5.43
2023-01-07T08:42:28.340Z,5.48
2023-01-07T08:44:30.319Z,5.51
2023-01-07T08:46:33.336Z,5.54
2023-01-07T08:48:35.580Z,5.60
2023-01-07T08:50:37.211Z,5.62
2023-01-07T08:52:38.826Z,5.67
2023-01-07T08:54:40.413Z,5.71
2023-01-07T08:56:41.952Z,5.75
2023-01-07T08:58:43.921Z,5.78
2023-01-07T09:00:45.648Z,5.80
2023-01-07T09:02:48.662Z,5.85
2023-01-07T09:04:50.411Z,5.90
2023-01-07T09:06:52.010Z,5.92
2023-01-07T09:08:53.616Z,5.98
2023-01-07T09:10:55.329Z,6.01
2023-01-07T09:12:57.021Z,6.05
2023-01-07T09:14:58.665Z,6.07
2023-01-07T09:17:00.287Z,6.12
2023-01-07T09:19:03.254Z,6.14
2023-01-07T09:21:04.941Z,6.20
2023-01-07T09:23:06.508Z,6.24
2023-01-07T09:25:09.347Z,6.27
2023-01-07T09:27:10.978Z,6.32
2023-01-07T09:29:12.564Z,6.36
2023-01-07T09:31:14.225Z,6.41
2023-01-07T09:33:15.937Z,6.44
2023-01-07T09:35:19.069Z,6.47
2023-01-07T09:37:21.044Z,6.50
2023-01-07T09:39:22.555Z,6.54
2023-01-07T09:41:33.742Z,6.59
2023-01-07T09:43:59.631Z,6.62
2023-01-07T09:46:06.220Z,6.65
2023-01-07T09:48:17.000Z,6.68
2023-01-07T09:50:27.964Z,6.72
2023-01-07T09:52:35.782Z,6.75
2023-01-07T09:54:38.678Z,6.78
2023-01-07T09:56:40.481Z,6.81
2023-01-07T09:58:46.753Z,6.84
2023-01-07T10:00:58.712Z,6.89
2023-01-07T10:03:16.280Z,6.94
2023-01-07T10:05:35.573Z,6.98
2023-01-07T10:07:45.788Z,7.01
2023-01-07T10:09:59.985Z,7.06
2023-01-07T10:12:12.263Z,7.09
2023-01-07T10:14:35.386Z,7.13
2023-01-07T10:16:43.554Z,7.17
2023-01-07T10:18:54.491Z,7.18
2023-01-07T10:21:05.405Z,7.23
2023-01-07T10:23:11.884Z,7.27
2023-01-07T10:25:19.615Z,7.30
2023-01-07T10:27:29.550Z,7.34
2023-01-07T10:29:35.596Z,7.38
2023-01-07T10:31:37.256Z,7.40
2023-01-07T10:33:40.530Z,7.42
2023-01-07T10:35:42.264Z,7.45
2023-01-07T10:37:45.294Z,7.50
2023-01-07T10:39:58.452Z,7.54
2023-01-07T10:42:06.817Z,7.57
2023-01-07T10:44:32.815Z,7.60
2023-01-07T10:46:48.861Z,7.64
2023-01-07T10:49:18.260Z,7.68
2023-01-07T10:51:46.534Z,7.71
2023-01-07T10:54:00.728Z,7.73
2023-01-07T10:56:17.435Z,7.75
2023-01-07T10:58:19.254Z,7.77
2023-01-07T11:00:20.973Z,7.80
2023-01-07T11:02:24.808Z,7.81
2023-01-07T11:04:26.951Z,7.86
2023-01-07T11:06:38.599Z,7.91
2023-01-07T11:08:42.296Z,7.94
2023-01-07T11:10:45.319Z,7.97
2023-01-07T11:12:50.477Z,8.01
2023-01-07T11:14:54.977Z,8.04
2023-01-07T11:17:07.329Z,8.07
2023-01-07T11:19:10.959Z,8.10
2023-01-07T11:21:43.624Z,8.13
2023-01-07T11:23:36.212Z,8.16
2023-01-07T11:25:37.898Z,8.19
2023-01-07T11:27:45.492Z,8.23
2023-01-07T11:29:58.462Z,8.24
2023-01-07T11:32:01.547Z,8.27
2023-01-07T11:34:04.583Z,8.29
2023-01-07T11:36:08.054Z,8.32
2023-01-07T11:38:27.107Z,8.37
2023-01-07T11:40:31.202Z,8.39
2023-01-07T11:42:32.751Z,8.41
2023-01-07T11:44:35.809Z,8.43
2023-01-07T11:46:43.495Z,8.46
2023-01-07T11:48:49.875Z,8.48
2023-01-07T11:50:57.992Z,8.53
2023-01-07T11:53:01.932Z,8.56
2023-01-07T11:55:15.828Z,8.58
2023-01-07T11:57:23.040Z,8.63
2023-01-07T11:59:30.271Z,8.65
2023-01-07T12:01:42.451Z,8.67
2023-01-07T12:04:01.085Z,8.71
2023-01-07T12:06:08.151Z,8.74
2023-01-07T12:08:20.134Z,8.77
2023-01-07T12:10:28.002Z,8.78
2023-01-07T12:12:29.701Z,8.81
2023-01-07T12:14:33.907Z,8.83
2023-01-07T12:16:37.668Z,8.86
2023-01-07T12:19:01.743Z,8.92
2023-01-07T12:21:42.375Z,8.95
2023-01-07T12:23:54.529Z,8.95
2023-01-07T12:26:07.955Z,8.96
2023-01-07T12:28:13.565Z,8.98
2023-01-07T12:30:34.922Z,9.00
2023-01-07T12:32:49.824Z,9.02
2023-01-07T12:34:58.150Z,9.04
2023-01-07T12:37:28.745Z,9.07
2023-01-07T12:39:35.601Z,9.07
2023-01-07T12:41:41.399Z,9.08
2023-01-07T12:43:56.489Z,9.10
2023-01-07T12:46:02.253Z,9.12
2023-01-07T12:48:12.583Z,9.13
2023-01-07T12:50:17.922Z,9.15
2023-01-07T12:52:26.567Z,9.16
2023-01-07T12:54:42.259Z,9.19
2023-01-07T12:56:51.357Z,9.20
2023-01-07T12:58:58.924Z,9.22
2023-01-07T13:01:05.961Z,9.22
2023-01-07T13:03:23.989Z,9.26
2023-01-07T13:05:30.206Z,9.26
2023-01-07T13:07:40.251Z,9.28
2023-01-07T13:09:51.270Z,9.32
2023-01-07T13:11:57.468Z,9.31
2023-01-07T13:14:00.376Z,9.32
2023-01-07T13:16:02.008Z,9.36
2023-01-07T13:18:14.558Z,9.38
2023-01-07T13:20:21.591Z,9.40
2023-01-07T13:22:30.574Z,9.41
2023-01-07T13:24:56.476Z,9.43
2023-01-07T13:27:05.649Z,9.44
2023-01-07T13:29:20.450Z,9.46
2023-01-07T13:31:42.765Z,9.47
2023-01-07T13:33:52.636Z,9.48
2023-01-07T13:36:06.587Z,9.50
2023-01-07T13:38:25.529Z,9.52
2023-01-07T13:40:46.146Z,9.54
2023-01-07T13:42:52.508Z,9.55
2023-01-07T13:45:00.350Z,9.58
2023-01-07T13:47:03.987Z,9.58
2023-01-07T13:49:22.639Z,9.62
2023-01-07T13:51:27.921Z,9.63
2023-01-07T13:53:33.794Z,9.64
2023-01-07T13:55:41.324Z,9.65
2023-01-07T13:57:44.947Z,9.67
2023-01-07T13:59:48.406Z,9.69
2023-01-07T14:02:15.622Z,9.72
2023-01-07T14:04:46.824Z,9.74
2023-01-07T14:06:51.576Z,9.73
2023-01-07T14:08:56.295Z,9.73
2023-01-07T14:10:57.885Z,9.74
2023-01-07T14:13:11.867Z,9.76
2023-01-07T14:15:40.907Z,9.78
2023-01-07T14:17:57.634Z,9.79
2023-01-07T14:20:11.160Z,9.79
2023-01-07T14:22:21.884Z,9.80
2023-01-07T14:24:50.616Z,9.84
2023-01-07T14:26:59.322Z,9.80
2023-01-07T14:29:27.022Z,9.85
2023-01-07T14:31:30.327Z,9.82
2023-01-07T14:33:37.217Z,9.83
2023-01-07T14:35:42.145Z,9.83
2023-01-07T14:37:44.249Z,9.83
2023-01-07T14:39:46.845Z,9.83
2023-01-07T14:42:22.036Z,9.86
2023-01-07T14:44:29.544Z,9.85
2023-01-07T14:46:45.956Z,9.87
2023-01-07T14:49:12.115Z,9.87
2023-01-07T14:51:32.026Z,9.86
2023-01-07T14:53:52.241Z,9.86
2023-01-07T14:56:19.217Z,9.86
2023-01-07T14:58:32.299Z,9.84
2023-01-07T15:00:56.959Z,9.85
2023-01-07T15:03:20.743Z,9.85
2023-01-07T15:05:48.555Z,9.85
2023-01-07T15:07:57.169Z,9.84
2023-01-07T15:10:02.099Z,9.83
2023-01-07T15:12:11.903Z,9.83
2023-01-07T15:14:22.890Z,9.84
2023-01-07T15:16:24.769Z,9.82
2023-01-07T15:18:27.405Z,9.82
2023-01-07T15:20:44.185Z,9.82
2023-01-07T15:23:00.800Z,9.81
2023-01-07T15:25:10.672Z,9.79
2023-01-07T15:27:19.146Z,9.78
2023-01-07T15:29:30.743Z,9.80
2023-01-07T15:31:41.273Z,9.79
2023-01-07T15:33:56.116Z,9.80
2023-01-07T15:35:58.027Z,9.77
2023-01-07T15:38:20.517Z,9.78
2023-01-07T15:40:25.555Z,9.76
2023-01-07T15:42:27.582Z,9.77
2023-01-07T15:44:41.051Z,9.78
2023-01-07T15:46:42.867Z,9.77
2023-01-07T15:48:44.632Z,9.77
2023-01-07T15:50:46.250Z,9.76
2023-01-07T15:52:49.052Z,9.76
2023-01-07T15:54:53.833Z,9.74
2023-01-07T15:56:59.869Z,9.76
2023-01-07T15:59:06.438Z,9.75
2023-01-07T16:01:15.761Z,9.76
2023-01-07T16:03:19.099Z,9.76
2023-01-07T16:05:20.956Z,9.76
2023-01-07T16:07:27.354Z,9.76
2023-01-07T16:09:29.678Z,9.76
2023-01-07T16:11:32.636Z,9.75
2023-01-07T16:13:36.761Z,9.75
2023-01-07T16:15:39.364Z,9.73
2023-01-07T16:17:49.812Z,9.75
2023-01-07T16:20:10.148Z,9.76
2023-01-07T16:22:15.731Z,9.73
2023-01-07T16:24:17.870Z,9.72
2023-01-07T16:26:23.173Z,9.71
2023-01-07T16:28:29.804Z,9.71
2023-01-07T16:30:40.139Z,9.70
2023-01-07T16:32:42.279Z,9.68
2023-01-07T16:35:05.143Z,9.72
2023-01-07T16:37:14.940Z,9.69
2023-01-07T16:39:22.812Z,9.68
2023-01-07T16:41:26.837Z,9.67
2023-01-07T16:43:45.218Z,9.68
2023-01-07T16:46:09.255Z,9.67
2023-01-07T16:48:19.622Z,9.65
2023-01-07T16:50:36.039Z,9.64
2023-01-07T16:52:49.565Z,9.64
2023-01-07T16:54:51.108Z,9.61
2023-01-07T16:56:54.858Z,9.60
2023-01-07T16:58:57.904Z,9.59
2023-01-07T17:01:02.038Z,9.57
2023-01-07T17:03:03.964Z,9.56
2023-01-07T17:05:18.598Z,9.56
2023-01-07T17:07:24.960Z,9.53
2023-01-07T17:09:29.055Z,9.51
2023-01-07T17:11:35.164Z,9.51
2023-01-07T17:13:39.124Z,9.50
2023-01-07T17:15:42.976Z,9.48
2023-01-07T17:17:44.517Z,9.47
2023-01-07T17:19:52.156Z,9.42
2023-01-07T17:21:54.710Z,9.43
2023-01-07T17:23:56.384Z,9.41
2023-01-07T17:26:00.783Z,9.40
2023-01-07T17:28:08.217Z,9.39
2023-01-07T17:30:15.715Z,9.37
2023-01-07T17:32:18.828Z,9.35
2023-01-07T17:34:20.528Z,9.34
2023-01-07T17:36:23.770Z,9.31
2023-01-07T17:38:25.639Z,9.31
2023-01-07T17:40:27.294Z,9.28
2023-01-07T17:42:32.178Z,9.25
2023-01-07T17:44:33.861Z,9.25
2023-01-07T17:46:35.542Z,9.22
2023-01-07T17:48:38.860Z,9.21
2023-01-07T17:50:41.937Z,9.21
2023-01-07T17:52:47.407Z,9.20
2023-01-07T17:54:48.936Z,9.18
2023-01-07T17:56:52.649Z,9.18
2023-01-07T17:58:56.084Z,9.16
2023-01-07T18:00:59.970Z,9.15
2023-01-07T18:03:01.924Z,9.14
2023-01-07T18:05:05.881Z,9.12
2023-01-07T18:07:09.028Z,9.12
2023-01-07T18:09:10.753Z,9.11
2023-01-07T18:11:14.982Z,9.08
2023-01-07T18:13:16.493Z,9.08
2023-01-07T18:15:21.584Z,9.09
2023-01-07T18:17:23.148Z,9.07
2023-01-07T18:19:24.668Z,9.06
2023-01-07T18:21:27.510Z,9.06
2023-01-07T18:23:29.062Z,9.03
2023-01-07T18:25:31.707Z,9.04
2023-01-07T18:27:33.240Z,9.02
2023-01-07T18:29:34.748Z,9.01
2023-01-07T18:31:43.264Z,9.01
2023-01-07T18:33:44.896Z,9.02
2023-01-07T18:35:47.411Z,9.01
2023-01-07T18:37:50.796Z,9.00
2023-01-07T18:39:52.483Z,9.00
2023-01-07T18:41:54.183Z,8.98
2023-01-07T18:43:55.768Z,8.97
2023-01-07T18:45:57.544Z,8.98
2023-01-07T18:47:59.163Z,8.98
2023-01-07T18:50:00.779Z,8.98
2023-01-07T18:52:02.458Z,8.98
2023-01-07T18:54:05.967Z,8.96
2023-01-07T18:56:08.016Z,8.95
2023-01-07T18:58:12.499Z,8.96
2023-01-07T19:00:15.105Z,8.96
2023-01-07T19:02:18.630Z,8.95
2023-01-07T19:04:20.148Z,8.95
2023-01-07T19:06:21.817Z,8.94
2023-01-07T19:08:23.290Z,8.94
2023-01-07T19:10:26.639Z,8.92
2023-01-07T19:12:29.103Z,8.94
2023-01-07T19:14:33.728Z,8.92
2023-01-07T19:16:37.702Z,8.93
2023-01-07T19:18:41.054Z,8.93
2023-01-07T19:20:42.676Z,8.93
2023-01-07T19:22:44.215Z,8.91
2023-01-07T19:24:46.121Z,8.92
2023-01-07T19:26:49.128Z,8.91
2023-01-07T19:28:50.675Z,8.91
2023-01-07T19:30:52.211Z,8.91
2023-01-07T19:32:54.130Z,8.91
2023-01-07T19:34:55.877Z,8.90
2023-01-07T19:36:57.461Z,8.90
2023-01-07T19:38:59.055Z,8.91
2023-01-07T19:41:00.692Z,8.90
2023-01-07T19:43:03.975Z,8.91
2023-01-07T19:45:06.803Z,8.92
2023-01-07T19:47:08.395Z,8.90
2023-01-07T19:49:11.555Z,8.90
2023-01-07T19:51:13.495Z,8.91
2023-01-07T19:53:15.060Z,8.90
2023-01-07T19:55:16.522Z,8.91
2023-01-07T19:57:18.106Z,8.90
2023-01-07T19:59:20.987Z,8.91
2023-01-07T20:01:23.728Z,8.91
2023-01-07T20:03:25.294Z,8.93
2023-01-07T20:05:28.888Z,8.92
2023-01-07T20:07:30.481Z,8.93
2023-01-07T20:09:32.012Z,8.92
2023-01-07T20:11:33.681Z,8.93
2023-01-07T20:13:37.057Z,8.92
2023-01-07T20:15:39.929Z,8.91
2023-01-07T20:17:41.890Z,8.90
2023-01-07T20:19:43.683Z,8.89
2023-01-07T20:21:45.265Z,8.89
2023-01-07T20:23:47.452Z,8.88
2023-01-07T20:25:49.209Z,8.85
2023-01-07T20:27:50.947Z,8.83
2023-01-07T20:29:52.445Z,8.83
2023-01-07T20:31:55.805Z,8.80
2023-01-07T20:33:57.790Z,8.79
2023-01-07T20:36:00.057Z,8.75
2023-01-07T20:38:01.729Z,8.75
2023-01-07T20:40:03.934Z,8.73
2023-01-07T20:42:05.616Z,8.71
2023-01-07T20:44:07.636Z,8.69
2023-01-07T20:46:10.118Z,8.67
2023-01-07T20:48:13.747Z,8.66
2023-01-07T20:50:15.540Z,8.65
2023-01-07T20:52:17.302Z,8.63
2023-01-07T20:54:19.138Z,8.65
2023-01-07T20:56:24.600Z,8.64
2023-01-07T20:58:26.725Z,8.63
2023-01-07T21:00:31.277Z,8.63
2023-01-07T21:02:33.064Z,8.62
2023-01-07T21:04:37.056Z,8.62
2023-01-07T21:06:38.615Z,8.60
2023-01-07T21:08:40.612Z,8.62
2023-01-07T21:10:42.442Z,8.61
2023-01-07T21:12:44.623Z,8.61
2023-01-07T21:14:46.444Z,8.61
2023-01-07T21:16:48.061Z,8.61
2023-01-07T21:18:49.676Z,8.61
2023-01-07T21:20:53.349Z,8.62
2023-01-07T21:22:55.197Z,8.62
2023-01-07T21:24:56.713Z,8.62
2023-01-07T21:26:58.334Z,8.61
2023-01-07T21:28:59.928Z,8.63
2023-01-07T21:31:02.677Z,8.63
2023-01-07T21:33:05.846Z,8.63
2023-01-07T21:35:08.483Z,8.63
2023-01-07T21:37:11.431Z,8.64
2023-01-07T21:39:13.278Z,8.65
2023-01-07T21:41:16.172Z,8.65
2023-01-07T21:43:17.795Z,8.66
2023-01-07T21:45:19.500Z,8.68
2023-01-07T21:47:21.130Z,8.68
2023-01-07T21:49:22.638Z,8.69
2023-01-07T21:51:25.821Z,8.68
2023-01-07T21:53:29.168Z,8.67
2023-01-07T21:55:30.847Z,8.69
2023-01-07T21:57:32.420Z,8.68
2023-01-07T21:59:34.225Z,8.68
2023-01-07T22:01:36.340Z,8.68
2023-01-07T22:03:40.198Z,8.69
2023-01-07T22:05:41.757Z,8.70
2023-01-07T22:07:43.301Z,8.69
2023-01-07T22:09:46.549Z,8.70
2023-01-07T22:11:48.028Z,8.70
2023-01-07T22:13:50.229Z,8.70
2023-01-07T22:15:51.801Z,8.70
2023-01-07T22:17:53.292Z,8.71
2023-01-07T22:19:55.835Z,8.72
2023-01-07T22:21:57.384Z,8.71
2023-01-07T22:23:58.893Z,8.71
2023-01-07T22:26:06.182Z,8.73
2023-01-07T22:28:07.932Z,8.72
2023-01-07T22:30:13.188Z,8.72
2023-01-07T22:32:14.648Z,8.72
2023-01-07T22:34:16.300Z,8.73
2023-01-07T22:36:23.498Z,8.73
2023-01-07T22:38:26.966Z,8.73
2023-01-07T22:40:31.891Z,8.74
2023-01-07T22:42:39.936Z,8.73
2023-01-07T22:44:45.814Z,8.75
2023-01-07T22:46:51.127Z,8.75
2023-01-07T22:48:53.345Z,8.75
2023-01-07T22:51:00.534Z,8.76
2023-01-07T22:53:02.409Z,8.75
2023-01-07T22:55:05.016Z,8.75
2023-01-07T22:57:09.926Z,8.76
2023-01-07T22:59:22.129Z,8.78
2023-01-07T23:01:23.655Z,8.78
2023-01-07T23:03:25.467Z,8.78
2023-01-07T23:05:27.025Z,8.80
2023-01-07T23:07:28.537Z,8.77
2023-01-07T23:09:30.231Z,8.80
2023-01-07T23:11:32.134Z,8.80
2023-01-07T23:13:34.005Z,8.79
2023-01-07T23:15:38.257Z,8.81
2023-01-07T23:17:39.758Z,8.83
2023-01-07T23:19:41.279Z,8.80
2023-01-07T23:21:45.375Z,8.83
2023-01-07T23:23:46.828Z,8.83
2023-01-07T23:25:50.444Z,8.83
2023-01-07T23:27:51.977Z,8.84
2023-01-07T23:29:53.540Z,8.83
2023-01-07T23:31:56.780Z,8.83
2023-01-07T23:33:58.328Z,8.83
2023-01-07T23:36:03.115Z,8.83
2023-01-07T23:38:04.652Z,8.84
2023-01-07T23:40:08.214Z,8.82
2023-01-07T23:42:09.795Z,8.82
2023-01-07T23:44:11.321Z,8.83
2023-01-07T23:46:13.029Z,8.81
2023-01-07T23:48:15.933Z,8.82
2023-01-07T23:50:17.551Z,8.81
2023-01-07T23:52:19.505Z,8.81
2023-01-07T23:54:21.251Z,8.82
2023-01-07T23:56:22.740Z,8.80
2023-01-07T23:58:25.118Z,8.79
